createdAt,value
2023-09-24T00:00:34.060Z,14.50
2023-09-24T00:03:04.381Z,14.50
2023-09-24T00:05:33.907Z,14.50
2023-09-24T00:08:02.503Z,14.40
2023-09-24T00:10:31.755Z,14.40
2023-09-24T00:13:00.664Z,14.40
2023-09-24T00:15:29.862Z,14.40
2023-09-24T00:17:58.524Z,14.30
2023-09-24T00:20:28.787Z,14.30
2023-09-24T00:22:58.396Z,14.30
2023-09-24T00:25:27.421Z,14.20
2023-09-24T00:27:57.962Z,14.20
2023-09-24T00:30:26.588Z,14.20
2023-09-24T00:32:55.428Z,14.10
2023-09-24T00:35:24.626Z,14.10
2023-09-24T00:37:55.651Z,14.10
2023-09-24T00:40:24.967Z,14.10
2023-09-24T00:42:53.954Z,14.00
2023-09-24T00:45:26.866Z,14.00
2023-09-24T00:47:57.787Z,13.90
2023-09-24T00:50:34.086Z,13.90
2023-09-24T00:53:04.795Z,13.90
2023-09-24T00:55:34.052Z,13.90
2023-09-24T00:58:06.045Z,13.90
2023-09-24T01:00:35.502Z,13.80
2023-09-24T01:03:04.798Z,13.80
2023-09-24T01:05:33.613Z,13.80
2023-09-24T01:08:05.275Z,13.80
2023-09-24T01:10:33.860Z,13.80
2023-09-24T01:13:05.941Z,13.80
2023-09-24T01:15:36.167Z,13.80
2023-09-24T01:18:06.563Z,13.70
2023-09-24T01:20:35.489Z,13.60
2023-09-24T01:23:06.251Z,13.60
2023-09-24T01:25:36.137Z,13.60
2023-09-24T01:28:06.562Z,13.60
2023-09-24T01:30:36.069Z,13.60
2023-09-24T01:33:06.340Z,13.50
2023-09-24T01:35:37.404Z,13.50
2023-09-24T01:38:07.851Z,13.50
2023-09-24T01:40:38.782Z,13.50
2023-09-24T01:43:09.014Z,13.50
2023-09-24T01:45:40.042Z,13.40
2023-09-24T01:48:09.378Z,13.40
2023-09-24T01:50:38.972Z,13.40
2023-09-24T01:53:10.866Z,13.40
2023-09-24T01:55:39.781Z,13.40
2023-09-24T01:58:09.234Z,13.40
2023-09-24T02:00:38.491Z,13.40
2023-09-24T02:03:09.043Z,13.40
2023-09-24T02:05:39.329Z,13.30
2023-09-24T02:08:11.582Z,13.30
2023-09-24T02:10:42.218Z,13.30
2023-09-24T02:13:12.426Z,13.30
2023-09-24T02:15:41.460Z,13.30
2023-09-24T02:18:11.290Z,13.30
2023-09-24T02:20:43.253Z,13.30
2023-09-24T02:23:15.459Z,13.30
2023-09-24T02:25:46.063Z,13.20
2023-09-24T02:28:16.387Z,13.20
2023-09-24T02:30:45.089Z,13.30
2023-09-24T02:33:13.924Z,13.20
2023-09-24T02:35:42.684Z,13.20
2023-09-24T02:38:11.595Z,13.20
2023-09-24T02:40:42.505Z,13.20
2023-09-24T02:43:12.558Z,13.20
2023-09-24T02:45:41.199Z,13.20
2023-09-24T02:48:10.430Z,13.20
2023-09-24T02:50:40.175Z,13.20
2023-09-24T02:53:10.416Z,13.20
2023-09-24T02:55:39.226Z,13.20
2023-09-24T02:58:09.618Z,13.10
2023-09-24T03:00:42.713Z,13.10
2023-09-24T03:03:15.197Z,13.10
2023-09-24T03:05:43.883Z,13.10
2023-09-24T03:08:12.536Z,13.10
2023-09-24T03:10:42.000Z,13.10
2023-09-24T03:13:11.915Z,13.10
2023-09-24T03:15:40.481Z,13.00
2023-09-24T03:18:09.194Z,13.00
2023-09-24T03:20:37.993Z,13.00
2023-09-24T03:23:10.368Z,13.00
2023-09-24T03:25:41.139Z,13.00
2023-09-24T03:28:11.688Z,13.00
2023-09-24T03:30:40.313Z,13.00
2023-09-24T03:33:09.189Z,13.00
2023-09-24T03:35:37.970Z,13.00
2023-09-24T03:38:06.821Z,13.00
2023-09-24T03:40:36.049Z,13.00
2023-09-24T03:43:05.212Z,13.00
2023-09-24T03:45:35.278Z,12.90
2023-09-24T03:48:04.470Z,12.90
2023-09-24T03:50:33.103Z,12.90
2023-09-24T03:53:01.728Z,12.90
2023-09-24T03:55:31.205Z,12.90
2023-09-24T03:58:00.450Z,12.90
2023-09-24T04:00:29.177Z,12.90
2023-09-24T04:03:01.060Z,12.90
2023-09-24T04:05:31.414Z,12.90
2023-09-24T04:08:00.798Z,12.80
2023-09-24T04:10:31.298Z,12.90
2023-09-24T04:13:01.023Z,12.80
2023-09-24T04:15:31.108Z,12.80
2023-09-24T04:18:02.595Z,12.80
2023-09-24T04:20:35.363Z,12.80
2023-09-24T04:23:05.168Z,12.80
2023-09-24T04:25:33.705Z,12.70
2023-09-24T04:28:02.838Z,12.70
2023-09-24T04:30:31.753Z,12.70
2023-09-24T04:33:03.296Z,12.70
2023-09-24T04:35:32.086Z,12.70
2023-09-24T04:38:00.610Z,12.70
2023-09-24T04:40:29.630Z,12.70
2023-09-24T04:42:58.194Z,12.70
2023-09-24T04:45:26.996Z,12.70
2023-09-24T04:47:55.723Z,12.60
2023-09-24T04:50:26.932Z,12.60
2023-09-24T04:52:56.374Z,12.60
2023-09-24T04:55:26.035Z,12.50
2023-09-24T04:57:55.377Z,12.50
2023-09-24T05:00:24.203Z,12.50
2023-09-24T05:02:52.855Z,12.50
2023-09-24T05:05:21.774Z,12.50
2023-09-24T05:07:54.504Z,12.50
2023-09-24T05:10:23.123Z,12.50
2023-09-24T05:12:51.666Z,12.40
2023-09-24T05:15:20.392Z,12.40
2023-09-24T05:17:49.081Z,12.40
2023-09-24T05:20:17.986Z,12.40
2023-09-24T05:22:46.593Z,12.40
2023-09-24T05:25:16.914Z,12.40
2023-09-24T05:27:45.527Z,12.40
2023-09-24T05:30:14.441Z,12.40
2023-09-24T05:32:43.289Z,12.40
2023-09-24T05:35:12.143Z,12.40
2023-09-24T05:37:41.192Z,12.40
2023-09-24T05:40:13.180Z,12.40
2023-09-24T05:42:43.607Z,12.40
2023-09-24T05:45:13.170Z,12.40
2023-09-24T05:47:41.880Z,12.40
2023-09-24T05:50:11.380Z,12.40
2023-09-24T05:52:39.909Z,12.40
2023-09-24T05:55:09.850Z,12.40
2023-09-24T05:57:38.567Z,12.40
2023-09-24T06:00:10.064Z,12.40
2023-09-24T06:02:41.946Z,12.40
2023-09-24T06:05:11.610Z,12.40
2023-09-24T06:07:40.579Z,12.40
2023-09-24T06:10:11.067Z,12.40
2023-09-24T06:12:39.663Z,12.40
2023-09-24T06:15:11.919Z,12.40
2023-09-24T06:17:42.146Z,12.40
2023-09-24T06:20:12.063Z,12.40
2023-09-24T06:22:41.365Z,12.40
2023-09-24T06:25:10.761Z,12.40
2023-09-24T06:27:40.205Z,12.40
2023-09-24T06:30:12.525Z,12.50
2023-09-24T06:32:41.231Z,12.50
2023-09-24T06:35:10.906Z,12.50
2023-09-24T06:37:39.452Z,12.50
2023-09-24T06:40:11.269Z,12.60
2023-09-24T06:42:40.035Z,12.60
2023-09-24T06:45:10.775Z,12.60
2023-09-24T06:47:39.408Z,12.60
2023-09-24T06:50:08.854Z,12.70
2023-09-24T06:52:38.500Z,12.70
2023-09-24T06:55:10.042Z,12.70
2023-09-24T06:57:38.859Z,12.70
2023-09-24T07:00:11.694Z,12.80
2023-09-24T07:02:42.812Z,12.80
2023-09-24T07:05:11.969Z,12.80
2023-09-24T07:07:41.043Z,12.90
2023-09-24T07:10:10.458Z,12.90
2023-09-24T07:12:40.045Z,12.90
2023-09-24T07:15:13.604Z,12.90
2023-09-24T07:17:43.816Z,13.00
2023-09-24T07:20:14.245Z,13.00
2023-09-24T07:22:43.072Z,13.10
2023-09-24T07:25:14.844Z,13.10
2023-09-24T07:27:43.553Z,13.10
2023-09-24T07:30:12.936Z,13.20
2023-09-24T07:32:43.219Z,13.20
2023-09-24T07:35:13.069Z,13.30
2023-09-24T07:37:41.955Z,13.30
2023-09-24T07:40:12.002Z,13.40
2023-09-24T07:42:42.867Z,13.40
2023-09-24T07:45:14.698Z,13.50
2023-09-24T07:47:44.961Z,13.50
2023-09-24T07:50:13.579Z,13.60
2023-09-24T07:52:42.195Z,13.60
2023-09-24T07:55:11.020Z,13.60
2023-09-24T07:57:39.588Z,13.70
2023-09-24T08:00:10.048Z,13.80
2023-09-24T08:02:41.479Z,13.80
2023-09-24T08:05:11.695Z,13.80
2023-09-24T08:07:42.176Z,13.90
2023-09-24T08:10:12.244Z,13.90
2023-09-24T08:12:42.261Z,14.00
2023-09-24T08:15:11.391Z,14.00
2023-09-24T08:17:40.538Z,14.10
2023-09-24T08:20:12.526Z,14.10
2023-09-24T08:22:42.409Z,14.20
2023-09-24T08:25:11.493Z,14.30
2023-09-24T08:27:40.067Z,14.30
2023-09-24T08:30:09.774Z,14.40
2023-09-24T08:32:38.529Z,14.40
2023-09-24T08:35:07.833Z,14.50
2023-09-24T08:37:37.812Z,14.50
2023-09-24T08:40:08.633Z,14.60
2023-09-24T08:42:38.928Z,14.60
2023-09-24T08:45:13.022Z,14.70
2023-09-24T08:47:42.114Z,14.70
2023-09-24T08:50:11.427Z,14.80
2023-09-24T08:52:43.837Z,14.80
2023-09-24T08:55:14.117Z,14.90
2023-09-24T08:57:44.527Z,15.00
2023-09-24T09:00:15.411Z,15.00
2023-09-24T09:02:45.226Z,15.10
2023-09-24T09:05:21.229Z,15.10
2023-09-24T09:07:59.888Z,15.10
2023-09-24T09:10:29.659Z,15.20
2023-09-24T09:13:08.241Z,15.30
2023-09-24T09:15:38.329Z,15.30
2023-09-24T09:18:09.184Z,15.30
2023-09-24T09:20:42.916Z,15.40
2023-09-24T09:23:16.866Z,15.40
2023-09-24T09:25:50.995Z,15.50
2023-09-24T09:28:23.713Z,15.50
2023-09-24T09:31:06.945Z,15.60
2023-09-24T09:33:37.622Z,15.70
2023-09-24T09:36:06.894Z,15.70
2023-09-24T09:38:39.319Z,15.70
2023-09-24T09:41:08.352Z,15.80
2023-09-24T09:43:37.996Z,15.90
2023-09-24T09:46:10.934Z,15.90
2023-09-24T09:48:42.980Z,15.90
2023-09-24T09:51:14.354Z,16.00
2023-09-24T09:53:45.668Z,16.00
2023-09-24T09:56:14.330Z,16.10
2023-09-24T09:58:48.152Z,16.10
2023-09-24T10:01:19.711Z,16.20
2023-09-24T10:03:51.654Z,16.20
2023-09-24T10:06:21.177Z,16.30
2023-09-24T10:08:51.790Z,16.30
2023-09-24T10:11:55.154Z,16.40
2023-09-24T10:14:44.557Z,16.40
2023-09-24T10:17:27.660Z,16.50
2023-09-24T10:20:07.557Z,16.50
2023-09-24T10:22:40.428Z,16.60
2023-09-24T10:25:35.581Z,16.70
2023-09-24T10:28:09.622Z,16.70
2023-09-24T10:31:05.608Z,16.80
2023-09-24T10:33:59.903Z,16.80
2023-09-24T10:36:30.812Z,16.90
2023-09-24T10:39:04.902Z,17.00
2023-09-24T10:41:36.276Z,17.00
2023-09-24T10:44:24.984Z,17.10
2023-09-24T10:46:57.322Z,17.10
2023-09-24T10:49:28.695Z,17.20
2023-09-24T10:52:00.165Z,17.20
2023-09-24T10:54:29.410Z,17.30
2023-09-24T10:56:59.386Z,17.30
2023-09-24T10:59:34.886Z,17.40
2023-09-24T11:02:19.850Z,17.40
2023-09-24T11:04:50.372Z,17.50
2023-09-24T11:07:19.043Z,17.50
2023-09-24T11:09:50.492Z,17.60
2023-09-24T11:12:20.712Z,17.60
2023-09-24T11:15:14.324Z,17.70
2023-09-24T11:17:46.690Z,17.80
2023-09-24T11:20:18.615Z,17.80
2023-09-24T11:22:56.375Z,17.90
2023-09-24T11:25:25.339Z,17.90
2023-09-24T11:27:57.205Z,18.00
2023-09-24T11:30:28.602Z,18.00
2023-09-24T11:32:57.414Z,18.10
2023-09-24T11:35:26.965Z,18.10
2023-09-24T11:37:57.984Z,18.10
2023-09-24T11:40:29.041Z,18.20
2023-09-24T11:43:01.142Z,18.20
2023-09-24T11:45:49.359Z,18.30
2023-09-24T11:48:20.271Z,18.30
2023-09-24T11:50:51.234Z,18.40
2023-09-24T11:53:24.092Z,18.40
2023-09-24T11:55:54.983Z,18.40
2023-09-24T11:58:27.437Z,18.50
2023-09-24T12:00:57.505Z,18.50
2023-09-24T12:03:26.591Z,18.60
2023-09-24T12:05:55.285Z,18.60
2023-09-24T12:08:23.972Z,18.70
2023-09-24T12:10:53.125Z,18.70
2023-09-24T12:13:24.389Z,18.70
2023-09-24T12:15:53.180Z,18.80
2023-09-24T12:18:23.066Z,18.80
2023-09-24T12:20:52.319Z,18.80
2023-09-24T12:23:20.966Z,18.90
2023-09-24T12:25:53.224Z,18.90
2023-09-24T12:28:21.881Z,19.00
2023-09-24T12:30:52.825Z,19.00
2023-09-24T12:33:21.841Z,19.10
2023-09-24T12:35:50.666Z,19.10
2023-09-24T12:38:19.434Z,19.10
2023-09-24T12:40:50.083Z,19.10
2023-09-24T12:43:18.864Z,19.20
2023-09-24T12:45:47.546Z,19.20
2023-09-24T12:48:17.562Z,19.20
2023-09-24T12:50:48.252Z,19.30
2023-09-24T12:53:16.949Z,19.30
2023-09-24T12:55:47.015Z,19.30
2023-09-24T12:58:15.759Z,19.30
2023-09-24T13:00:44.478Z,19.40
2023-09-24T13:03:13.698Z,19.40
2023-09-24T13:05:43.892Z,19.50
2023-09-24T13:08:13.772Z,19.50
2023-09-24T13:10:42.487Z,19.60
2023-09-24T13:13:12.236Z,19.60
2023-09-24T13:15:40.887Z,19.70
2023-09-24T13:18:10.024Z,19.80
2023-09-24T13:20:38.816Z,19.90
2023-09-24T13:23:08.832Z,20.10
2023-09-24T13:25:37.570Z,20.30
2023-09-24T13:28:06.601Z,20.50
2023-09-24T13:30:36.120Z,20.70
2023-09-24T13:33:05.219Z,21.00
2023-09-24T13:35:34.261Z,21.30
2023-09-24T13:38:03.577Z,21.50
2023-09-24T13:40:39.199Z,21.70
2023-09-24T13:43:08.884Z,21.90
2023-09-24T13:45:42.182Z,21.90
2023-09-24T13:48:12.179Z,22.10
2023-09-24T13:50:41.280Z,22.10
2023-09-24T13:53:10.514Z,22.20
2023-09-24T13:55:43.259Z,22.20
2023-09-24T13:58:12.079Z,22.30
2023-09-24T14:00:40.875Z,22.40
2023-09-24T14:03:09.687Z,22.40
2023-09-24T14:05:38.407Z,22.50
2023-09-24T14:08:21.143Z,22.60
2023-09-24T14:11:08.562Z,22.60
2023-09-24T14:13:37.404Z,22.60
2023-09-24T14:16:06.291Z,22.60
2023-09-24T14:18:35.142Z,22.50
2023-09-24T14:21:11.073Z,22.50
2023-09-24T14:23:40.785Z,22.50
2023-09-24T14:26:10.827Z,22.40
2023-09-24T14:28:39.888Z,22.40
2023-09-24T14:31:08.918Z,22.40
2023-09-24T14:33:37.842Z,22.40
2023-09-24T14:36:07.498Z,22.40
2023-09-24T14:38:36.163Z,22.40
2023-09-24T14:41:04.872Z,22.40
2023-09-24T14:43:36.048Z,22.50
2023-09-24T14:46:06.491Z,22.50
2023-09-24T14:48:35.442Z,22.60
2023-09-24T14:51:04.835Z,22.60
2023-09-24T14:53:35.101Z,22.70
2023-09-24T14:56:04.764Z,22.80
2023-09-24T14:58:34.802Z,22.90
2023-09-24T15:01:04.903Z,22.90
2023-09-24T15:03:34.275Z,23.10
2023-09-24T15:06:04.466Z,23.20
2023-09-24T15:08:33.915Z,23.40
2023-09-24T15:11:04.299Z,23.50
2023-09-24T15:13:36.359Z,23.50
2023-09-24T15:16:06.070Z,23.50
2023-09-24T15:18:35.745Z,23.40
2023-09-24T15:21:05.566Z,23.20
2023-09-24T15:23:34.240Z,23.10
2023-09-24T15:26:02.828Z,22.90
2023-09-24T15:28:31.634Z,22.70
2023-09-24T15:31:01.596Z,22.50
2023-09-24T15:33:30.879Z,22.40
2023-09-24T15:35:59.663Z,22.20
2023-09-24T15:38:28.912Z,22.00
2023-09-24T15:40:57.496Z,21.90
2023-09-24T15:43:26.551Z,21.70
2023-09-24T15:45:55.245Z,21.60
2023-09-24T15:48:25.454Z,21.50
2023-09-24T15:50:54.197Z,21.40
2023-09-24T15:53:22.968Z,21.30
2023-09-24T15:55:51.773Z,21.20
2023-09-24T15:58:20.354Z,21.10
2023-09-24T16:00:48.948Z,21.00
2023-09-24T16:03:19.000Z,20.90
2023-09-24T16:05:49.512Z,20.80
2023-09-24T16:08:18.149Z,20.70
2023-09-24T16:10:46.841Z,20.70
2023-09-24T16:13:15.666Z,20.60
2023-09-24T16:15:44.444Z,20.50
2023-09-24T16:18:13.126Z,20.50
2023-09-24T16:20:42.273Z,20.40
2023-09-24T16:23:13.397Z,20.30
2023-09-24T16:25:42.463Z,20.20
2023-09-24T16:28:11.006Z,20.20
2023-09-24T16:30:41.545Z,20.10
2023-09-24T16:33:10.435Z,20.10
2023-09-24T16:35:42.036Z,20.00
2023-09-24T16:38:10.701Z,20.00
2023-09-24T16:40:40.645Z,19.90
2023-09-24T16:43:09.227Z,19.90
2023-09-24T16:45:37.882Z,19.80
2023-09-24T16:48:07.079Z,19.80
2023-09-24T16:50:37.336Z,19.80
2023-09-24T16:53:06.096Z,19.70
2023-09-24T16:55:37.491Z,19.70
2023-09-24T16:58:07.805Z,19.60
2023-09-24T17:00:37.438Z,19.50
2023-09-24T17:03:06.620Z,19.50
2023-09-24T17:05:36.822Z,19.50
2023-09-24T17:08:06.932Z,19.50
2023-09-24T17:10:36.393Z,19.40
2023-09-24T17:13:07.160Z,19.30
2023-09-24T17:15:37.191Z,19.30
2023-09-24T17:18:07.475Z,19.30
2023-09-24T17:20:36.180Z,19.30
2023-09-24T17:23:05.133Z,19.20
2023-09-24T17:25:33.683Z,19.20
2023-09-24T17:28:02.274Z,19.10
2023-09-24T17:30:31.004Z,19.10
2023-09-24T17:33:03.642Z,19.10
2023-09-24T17:35:34.351Z,19.00
2023-09-24T17:38:02.948Z,19.00
2023-09-24T17:40:31.529Z,18.90
2023-09-24T17:43:00.130Z,18.90
2023-09-24T17:45:30.478Z,18.90
2023-09-24T17:48:00.725Z,18.80
2023-09-24T17:50:29.379Z,18.80
2023-09-24T17:52:57.974Z,18.80
2023-09-24T17:55:26.616Z,18.70
2023-09-24T17:57:55.274Z,18.70
2023-09-24T18:00:23.959Z,18.70
2023-09-24T18:02:52.986Z,18.60
2023-09-24T18:05:23.122Z,18.60
2023-09-24T18:07:51.742Z,18.60
2023-09-24T18:10:20.321Z,18.50
2023-09-24T18:12:48.859Z,18.50
2023-09-24T18:15:17.740Z,18.50
2023-09-24T18:17:46.509Z,18.40
2023-09-24T18:20:15.433Z,18.40
2023-09-24T18:22:46.034Z,18.40
2023-09-24T18:25:15.338Z,18.30
2023-09-24T18:27:43.941Z,18.30
2023-09-24T18:30:13.114Z,18.30
2023-09-24T18:32:42.294Z,18.20
2023-09-24T18:35:11.184Z,18.20
2023-09-24T18:37:39.859Z,18.20
2023-09-24T18:40:10.947Z,18.20
2023-09-24T18:42:40.433Z,18.20
2023-09-24T18:45:09.567Z,18.10
2023-09-24T18:47:38.355Z,18.10
2023-09-24T18:50:07.630Z,18.10
2023-09-24T18:52:36.359Z,18.00
2023-09-24T18:55:05.338Z,18.00
2023-09-24T18:57:35.453Z,18.00
2023-09-24T19:00:09.592Z,17.90
2023-09-24T19:02:38.341Z,17.90
2023-09-24T19:05:08.746Z,17.90
2023-09-24T19:07:37.755Z,17.80
2023-09-24T19:10:07.011Z,17.80
2023-09-24T19:12:37.037Z,17.80
2023-09-24T19:15:07.213Z,17.70
2023-09-24T19:17:36.354Z,17.70
2023-09-24T19:20:05.890Z,17.70
2023-09-24T19:22:34.664Z,17.60
2023-09-24T19:25:03.889Z,17.60
2023-09-24T19:27:32.657Z,17.60
2023-09-24T19:30:03.403Z,17.50
2023-09-24T19:32:32.945Z,17.50
2023-09-24T19:35:01.961Z,17.50
2023-09-24T19:37:30.705Z,17.40
2023-09-24T19:39:59.328Z,17.40
2023-09-24T19:42:28.126Z,17.40
2023-09-24T19:44:57.110Z,17.40
2023-09-24T19:47:27.322Z,17.30
2023-09-24T19:49:56.251Z,17.30
2023-09-24T19:52:24.880Z,17.30
2023-09-24T19:54:53.760Z,17.30
2023-09-24T19:57:23.133Z,17.20
2023-09-24T19:59:52.120Z,17.20
2023-09-24T20:02:20.884Z,17.20
2023-09-24T20:04:51.085Z,17.20
2023-09-24T20:07:19.858Z,17.10
2023-09-24T20:09:52.147Z,17.10
2023-09-24T20:12:24.656Z,17.10
2023-09-24T20:14:54.915Z,17.10
2023-09-24T20:17:27.268Z,17.00
2023-09-24T20:19:57.468Z,17.00
2023-09-24T20:22:26.905Z,17.00
2023-09-24T20:25:01.344Z,17.00
2023-09-24T20:27:29.956Z,17.00
2023-09-24T20:30:00.717Z,17.00
2023-09-24T20:32:29.416Z,16.90
2023-09-24T20:34:59.649Z,16.90
2023-09-24T20:37:28.258Z,16.90
2023-09-24T20:39:56.867Z,16.90
2023-09-24T20:42:25.684Z,16.80
2023-09-24T20:44:54.506Z,16.80
2023-09-24T20:47:26.110Z,16.80
2023-09-24T20:49:54.781Z,16.80
2023-09-24T20:52:24.953Z,16.70
2023-09-24T20:54:53.662Z,16.70
2023-09-24T20:57:23.158Z,16.70
2023-09-24T20:59:59.089Z,16.70
2023-09-24T21:02:27.738Z,16.60
2023-09-24T21:04:59.009Z,16.60
2023-09-24T21:07:33.093Z,16.60
2023-09-24T21:10:05.592Z,16.60
2023-09-24T21:12:34.906Z,16.50
2023-09-24T21:15:03.962Z,16.50
2023-09-24T21:17:33.232Z,16.50
2023-09-24T21:20:04.177Z,16.50
2023-09-24T21:22:34.203Z,16.40
2023-09-24T21:25:03.206Z,16.40
2023-09-24T21:27:31.903Z,16.40
2023-09-24T21:30:00.666Z,16.30
2023-09-24T21:32:29.328Z,16.30
2023-09-24T21:34:59.871Z,16.30
2023-09-24T21:37:31.300Z,16.20
2023-09-24T21:40:01.610Z,16.20
2023-09-24T21:42:30.277Z,16.20
2023-09-24T21:45:01.606Z,16.20
2023-09-24T21:47:31.810Z,16.20
2023-09-24T21:50:01.290Z,16.20
2023-09-24T21:52:30.006Z,16.10
2023-09-24T21:54:58.549Z,16.10
2023-09-24T21:57:28.540Z,16.10
2023-09-24T21:59:57.181Z,16.00
2023-09-24T22:02:26.049Z,16.00
2023-09-24T22:04:54.978Z,16.00
2023-09-24T22:07:24.115Z,15.90
2023-09-24T22:09:53.393Z,15.90
2023-09-24T22:12:22.044Z,15.90
2023-09-24T22:14:51.993Z,15.90
2023-09-24T22:17:20.589Z,15.80
2023-09-24T22:19:49.250Z,15.80
2023-09-24T22:22:17.974Z,15.80
2023-09-24T22:24:46.891Z,15.80
2023-09-24T22:27:15.645Z,15.80
2023-09-24T22:29:44.324Z,15.80
2023-09-24T22:32:14.240Z,15.70
2023-09-24T22:34:42.933Z,15.80
2023-09-24T22:37:11.612Z,15.70
2023-09-24T22:39:40.238Z,15.70
2023-09-24T22:42:08.869Z,15.70
2023-09-24T22:44:37.470Z,15.60
2023-09-24T22:47:06.141Z,15.60
2023-09-24T22:49:36.221Z,15.60
2023-09-24T22:52:05.006Z,15.60
2023-09-24T22:54:33.564Z,15.60
2023-09-24T22:57:02.673Z,15.60
2023-09-24T22:59:31.271Z,15.50
2023-09-24T23:01:59.965Z,15.50
2023-09-24T23:04:28.767Z,15.50
2023-09-24T23:06:58.684Z,15.40
2023-09-24T23:09:27.309Z,15.40
2023-09-24T23:11:55.881Z,15.40
2023-09-24T23:14:24.518Z,15.40
2023-09-24T23:16:53.209Z,15.30
2023-09-24T23:19:24.086Z,15.30
2023-09-24T23:21:53.463Z,15.30
2023-09-24T23:24:23.455Z,15.30
2023-09-24T23:26:52.156Z,15.30
2023-09-24T23:29:21.196Z,15.30
2023-09-24T23:31:51.576Z,15.30
2023-09-24T23:34:20.327Z,15.30
2023-09-24T23:36:48.905Z,15.30
2023-09-24T23:39:17.575Z,15.20
2023-09-24T23:41:47.600Z,15.20
2023-09-24T23:44:16.114Z,15.20
2023-09-24T23:46:45.402Z,15.20
2023-09-24T23:49:14.108Z,15.10
2023-09-24T23:51:42.742Z,15.10
2023-09-24T23:54:13.694Z,15.10
2023-09-24T23:56:42.623Z,15.10
2023-09-24T23:59:12.592Z,15.00
